Time;durP1;ratioP1;P1;durP2;ratioP2;P2;SDS_P1;SDS_P2;PMS_P1;PMS_P2;Temp;Humidity;BMP_temperature;BMP_pressure;BME280_temperature;BME280_humidity;BME280_pressure;Samples;Min_cycle;Max_cycle;Signal;HPM_P1;HPM_P2
2022/02/14 00:01:00;;;;;;;6.80;3.23;;;11.90;1.00;;;;;;4959221;28;20190;-89
2022/02/14 00:03:25;;;;;;;9.53;2.60;;;12.00;1.00;;;;;;4958586;28;20188;-90
2022/02/14 00:05:51;;;;;;;6.27;2.90;;;12.00;1.00;;;;;;4959419;28;20535;-89
2022/02/14 00:08:17;;;;;;;6.07;2.70;;;12.00;1.00;;;;;;4958407;28;20195;-90
2022/02/14 00:10:43;;;;;;;7.43;3.30;;;12.00;1.00;;;;;;4959276;29;20195;-89
2022/02/14 00:13:08;;;;;;;6.17;2.90;;;11.90;1.00;;;;;;4961814;28;20169;-89
2022/02/14 00:15:35;;;;;;;5.60;2.47;;;12.00;1.00;;;;;;4962723;28;20176;-90
2022/02/14 00:18:01;;;;;;;5.07;2.27;;;12.00;1.00;;;;;;4958067;29;20250;-89
2022/02/14 00:20:27;;;;;;;6.07;2.60;;;11.90;1.00;;;;;;4958994;28;20608;-90
2022/02/14 00:22:53;;;;;;;7.00;2.50;;;11.90;1.00;;;;;;4958939;29;20219;-91
2022/02/14 00:25:19;;;;;;;8.00;3.10;;;11.90;1.00;;;;;;4962815;28;20184;-89
2022/02/14 00:27:48;;;;;;;4.80;2.27;;;11.90;1.00;;;;;;4968825;29;20248;-89
2022/02/14 00:30:14;;;;;;;6.20;2.73;;;12.10;1.00;;;;;;4989732;28;20244;-90
2022/02/14 00:32:42;;;;;;;4.00;2.10;;;12.00;1.00;;;;;;4966474;28;20184;-89
2022/02/14 00:35:10;;;;;;;6.20;2.57;;;12.00;1.00;;;;;;4960427;28;20181;-91
2022/02/14 00:37:36;;;;;;;5.13;2.17;;;12.00;1.00;;;;;;4959211;28;20184;-89
2022/02/14 00:40:02;;;;;;;5.37;2.10;;;12.00;1.00;;;;;;4962307;28;20180;-90
2022/02/14 00:42:28;;;;;;;6.43;2.27;;;12.10;1.00;;;;;;4965213;28;20226;-89
2022/02/14 00:44:55;;;;;;;4.30;2.13;;;12.10;1.00;;;;;;4960572;28;20653;-88
2022/02/14 00:47:22;;;;;;;4.17;2.00;;;12.10;1.00;;;;;;4962787;28;20176;-89
2022/02/14 00:49:47;;;;;;;4.73;2.67;;;12.10;1.00;;;;;;4960987;29;20660;-89
2022/02/14 00:52:13;;;;;;;7.33;2.23;;;12.00;1.00;;;;;;4961474;28;20196;-90
2022/02/14 00:54:39;;;;;;;5.57;2.37;;;12.00;1.00;;;;;;4960384;29;20244;-90
2022/02/14 00:57:04;;;;;;;5.50;1.83;;;12.00;1.00;;;;;;4961718;28;20184;-90
2022/02/14 00:59:30;;;;;;;6.10;2.10;;;12.00;1.00;;;;;;4962732;28;20184;-90
2022/02/14 01:01:56;;;;;;;5.20;2.23;;;12.10;1.00;;;;;;4962071;28;20222;-89
2022/02/14 01:04:23;;;;;;;4.17;1.90;;;12.00;1.00;;;;;;4967207;28;20203;-89
2022/02/14 01:06:51;;;;;;;3.40;2.00;;;12.20;1.00;;;;;;4964185;28;20188;-88
2022/02/14 01:09:26;;;;;;;5.07;1.90;;;12.00;1.00;;;;;;4976380;28;20153;-91
2022/02/14 01:11:56;;;;;;;6.33;2.20;;;11.90;1.00;;;;;;4978519;28;20164;-89
2022/02/14 01:14:23;;;;;;;6.70;2.47;;;12.00;1.00;;;;;;4960505;29;20600;-90
2022/02/14 01:16:50;;;;;;;6.13;2.43;;;12.00;1.00;;;;;;4959733;28;20145;-90
2022/02/14 01:19:16;;;;;;;4.23;1.90;;;12.10;1.00;;;;;;4962433;28;20283;-89
2022/02/14 01:21:43;;;;;;;4.30;2.03;;;12.00;1.00;;;;;;4966336;28;20210;-88
2022/02/14 01:24:09;;;;;;;3.80;1.63;;;12.00;1.00;;;;;;4971738;29;20189;-90
2022/02/14 01:26:40;;;;;;;4.90;1.97;;;12.00;1.00;;;;;;4973863;28;20531;-90
2022/02/14 01:29:07;;;;;;;7.03;2.23;;;12.00;1.00;;;;;;4971036;29;20168;-88
2022/02/14 01:31:35;;;;;;;7.67;1.93;;;12.10;1.00;;;;;;4966770;29;20215;-89
2022/02/14 01:34:01;;;;;;;4.00;1.77;;;12.00;1.00;;;;;;4963993;28;20172;-89
2022/02/14 01:36:38;;;;;;;;;;;;;;;;;;;;;
2022/02/14 01:39:05;;;;;;;4.73;2.20;;;12.00;1.00;;;;;;4970861;29;20255;-89
2022/02/14 01:41:34;;;;;;;6.57;2.47;;;12.00;1.00;;;;;;4972850;28;20224;-86
2022/02/14 01:44:00;;;;;;;3.97;1.97;;;11.70;1.00;;;;;;4981046;28;20180;-87
2022/02/14 01:46:26;;;;;;;7.23;2.37;;;12.00;1.00;;;;;;4981524;28;20160;-90
2022/02/14 01:48:52;;;;;;;5.00;1.90;;;11.90;1.00;;;;;;4980062;28;20184;-88
2022/02/14 01:51:18;;;;;;;6.50;2.03;;;11.90;1.00;;;;;;4981923;28;20169;-88
2022/02/14 01:53:45;;;;;;;8.07;2.23;;;11.90;1.00;;;;;;4973447;28;20213;-89
2022/02/14 01:56:16;;;;;;;5.27;2.37;;;11.90;1.00;;;;;;4967273;28;20275;-87
2022/02/14 01:58:44;;;;;;;3.00;1.70;;;11.80;1.00;;;;;;4966212;28;20186;-89
2022/02/14 02:01:13;;;;;;;5.70;2.27;;;11.90;1.00;;;;;;4975672;28;20172;-89
2022/02/14 02:03:41;;;;;;;6.70;1.87;;;11.90;1.00;;;;;;4978303;28;20180;-90
2022/02/14 02:06:11;;;;;;;4.20;1.97;;;11.90;1.00;;;;;;4978610;28;20176;-88
2022/02/14 02:08:36;;;;;;;5.37;2.20;;;11.80;1.00;;;;;;4976576;28;20188;-89
2022/02/14 02:13:57;;;;;;;4.37;1.83;;;11.90;1.00;;;;;;4966268;28;20735;-89
2022/02/14 02:16:22;;;;;;;4.37;2.00;;;11.80;1.00;;;;;;4961371;28;20167;-90
2022/02/14 02:18:48;;;;;;;5.17;2.07;;;11.90;1.00;;;;;;4961760;28;20625;-89
2022/02/14 02:21:18;;;;;;;4.27;2.13;;;11.80;1.00;;;;;;4960211;28;20215;-88
2022/02/14 02:23:47;;;;;;;6.83;1.90;;;11.80;1.00;;;;;;4961379;29;20203;-89
2022/02/14 02:26:14;;;;;;;5.40;2.17;;;11.80;1.00;;;;;;4961997;28;20180;-87
2022/02/14 02:28:40;;;;;;;3.63;2.00;;;11.80;1.00;;;;;;4961365;28;20249;-89
2022/02/14 02:31:07;;;;;;;5.83;2.07;;;12.10;1.00;;;;;;4963421;28;20180;-89
2022/02/14 02:33:33;;;;;;;4.90;2.00;;;11.80;1.00;;;;;;4962805;28;20173;-89
2022/02/14 02:35:59;;;;;;;4.57;1.70;;;11.80;1.00;;;;;;4971700;28;20199;-89
2022/02/14 02:38:26;;;;;;;3.87;1.80;;;11.90;1.00;;;;;;4980056;28;20177;-89
2022/02/14 02:40:52;;;;;;;3.77;2.00;;;11.90;1.00;;;;;;4980188;29;20187;-89
2022/02/14 02:43:18;;;;;;;3.40;1.80;;;11.90;1.00;;;;;;4980504;28;20196;-89
2022/02/14 02:45:45;;;;;;;5.30;1.80;;;11.90;1.00;;;;;;4974217;28;20202;-89
2022/02/14 02:48:10;;;;;;;5.20;1.70;;;11.90;1.00;;;;;;4966679;28;20196;-88
2022/02/14 02:51:01;;;;;;;5.87;2.10;;;12.00;1.00;;;;;;4963350;28;20277;-90
2022/02/14 02:53:23;;;;;;;3.70;1.90;;;11.90;1.00;;;;;;4962845;28;20176;-89
2022/02/14 02:55:49;;;;;;;4.70;1.93;;;11.90;1.00;;;;;;4960657;28;20173;-88
2022/02/14 02:58:27;;;;;;;4.97;1.80;;;11.90;1.00;;;;;;4959312;29;20177;-89
2022/02/14 03:00:53;;;;;;;3.87;1.60;;;11.90;1.00;;;;;;4960485;28;20172;-90
2022/02/14 03:03:22;;;;;;;5.70;1.73;;;11.90;1.00;;;;;;4969897;28;20242;-89
2022/02/14 03:05:48;;;;;;;6.37;1.97;;;11.80;1.00;;;;;;4996780;28;20157;-88
2022/02/14 03:08:13;;;;;;;4.73;1.80;;;11.80;1.00;;;;;;4979648;28;20184;-89
2022/02/14 03:10:39;;;;;;;6.27;1.80;;;11.80;1.00;;;;;;4990731;28;20248;-89
2022/02/14 03:13:18;;;;;;;4.47;2.30;;;11.90;1.00;;;;;;4960521;29;20271;-89
2022/02/14 03:15:43;;;;;;;4.37;2.27;;;11.80;1.00;;;;;;4959929;28;20291;-89
2022/02/14 03:18:18;;;;;;;5.77;2.70;;;11.90;1.00;;;;;;4958546;28;20203;-89
2022/02/14 03:20:44;;;;;;;3.97;1.70;;;11.80;1.00;;;;;;4958961;28;20196;-91
2022/02/14 03:23:10;;;;;;;3.43;1.80;;;11.80;1.00;;;;;;4959192;28;20214;-89
2022/02/14 03:25:35;;;;;;;4.00;2.00;;;11.90;1.00;;;;;;4959363;28;20176;-88
2022/02/14 03:28:01;;;;;;;3.73;1.67;;;11.90;1.00;;;;;;4959574;28;20195;-88
2022/02/14 03:30:27;;;;;;;3.77;1.53;;;11.80;1.00;;;;;;4959175;28;20183;-89
2022/02/14 03:32:53;;;;;;;4.00;1.70;;;11.90;1.00;;;;;;4958771;29;20179;-88
2022/02/14 03:35:19;;;;;;;5.30;2.13;;;11.80;1.00;;;;;;4958583;28;20180;-89
2022/02/14 03:37:44;;;;;;;2.83;1.77;;;11.80;1.00;;;;;;4958973;28;20188;-89
2022/02/14 03:40:10;;;;;;;4.17;2.00;;;11.80;1.00;;;;;;4959060;28;20176;-88
2022/02/14 03:42:36;;;;;;;4.97;1.70;;;11.90;1.00;;;;;;4958960;28;20578;-91
2022/02/14 03:45:04;;;;;;;3.07;1.53;;;11.90;1.00;;;;;;4958228;28;20196;-89
2022/02/14 03:47:30;;;;;;;5.73;2.33;;;11.90;1.00;;;;;;4958266;29;20271;-90
2022/02/14 03:49:55;;;;;;;4.03;1.90;;;11.90;1.60;;;;;;4958222;28;20227;-89
2022/02/14 03:52:21;;;;;;;6.00;1.80;;;12.00;1.00;;;;;;4959021;28;20184;-89
2022/02/14 03:54:47;;;;;;;3.57;1.93;;;11.90;2.30;;;;;;4958857;28;20184;-90
2022/02/14 03:57:12;;;;;;;7.17;2.17;;;12.00;3.20;;;;;;4965176;28;20207;-89
2022/02/14 03:59:38;;;;;;;5.03;1.90;;;12.00;2.80;;;;;;4978460;28;20168;-89
2022/02/14 04:02:04;;;;;;;4.10;1.80;;;12.00;3.80;;;;;;4979492;28;20228;-88
2022/02/14 04:04:30;;;;;;;4.10;2.00;;;12.00;5.40;;;;;;4967092;28;20177;-87
2022/02/14 04:06:56;;;;;;;2.73;1.57;;;11.90;5.80;;;;;;4964750;28;20176;-90
2022/02/14 04:09:21;;;;;;;6.00;2.10;;;12.00;6.50;;;;;;4962204;28;20199;-87
2022/02/14 04:11:50;;;;;;;5.87;2.07;;;12.00;7.20;;;;;;4959009;28;20172;-89
2022/02/14 04:14:17;;;;;;;6.97;2.03;;;12.00;8.50;;;;;;4961971;28;20164;-87
2022/02/14 04:16:44;;;;;;;7.83;2.43;;;12.00;10.50;;;;;;4965934;28;20212;-90
2022/02/14 04:19:09;;;;;;;5.10;2.23;;;12.00;11.40;;;;;;4959359;28;20188;-90
2022/02/14 04:21:35;;;;;;;5.67;2.40;;;12.10;12.20;;;;;;4964073;28;20212;-87
2022/02/14 04:24:02;;;;;;;5.77;2.00;;;12.00;12.30;;;;;;4964695;28;20180;-89
2022/02/14 04:26:27;;;;;;;6.87;2.17;;;11.90;13.00;;;;;;4971007;28;20187;-88
2022/02/14 04:28:53;;;;;;;4.53;1.70;;;11.90;13.50;;;;;;4970279;28;20180;-88
2022/02/14 04:31:19;;;;;;;3.77;1.90;;;12.00;13.60;;;;;;4971455;28;20224;-89
2022/02/14 04:33:45;;;;;;;4.13;1.53;;;12.00;13.60;;;;;;4975266;29;20184;-88
2022/02/14 04:36:12;;;;;;;4.57;1.70;;;12.00;14.10;;;;;;4978363;28;20164;-89
2022/02/14 04:38:39;;;;;;;4.97;2.07;;;12.00;14.50;;;;;;4977780;28;20216;-87
2022/02/14 04:41:05;;;;;;;5.93;1.90;;;11.90;15.50;;;;;;4966845;29;20168;-91
2022/02/14 04:43:31;;;;;;;4.40;2.33;;;12.00;16.40;;;;;;4963429;28;20630;-88
2022/02/14 04:45:57;;;;;;;3.13;1.80;;;12.00;16.20;;;;;;4967566;28;20290;-88
2022/02/14 04:48:24;;;;;;;6.07;1.97;;;11.90;16.40;;;;;;4972213;28;20184;-88
2022/02/14 04:50:55;;;;;;;3.47;1.80;;;11.90;17.60;;;;;;4961244;29;20177;-88
2022/02/14 04:53:21;;;;;;;4.50;2.20;;;12.10;16.90;;;;;;4964199;28;20175;-88
2022/02/14 04:55:50;;;;;;;4.57;1.77;;;11.90;19.10;;;;;;4966896;28;20184;-88
2022/02/14 04:58:20;;;;;;;6.10;1.90;;;12.00;21.30;;;;;;4973074;28;20196;-89
2022/02/14 05:00:48;;;;;;;4.07;1.80;;;11.90;21.60;;;;;;4968579;28;20203;-91
2022/02/14 05:03:14;;;;;;;2.73;1.73;;;11.90;23.20;;;;;;4968600;28;20267;-89
2022/02/14 05:05:40;;;;;;;8.87;2.03;;;11.90;23.50;;;;;;4963403;28;20179;-89
2022/02/14 05:08:05;;;;;;;5.13;2.27;;;12.10;25.00;;;;;;4964944;28;20645;-89
2022/02/14 05:10:32;;;;;;;4.63;2.00;;;11.70;25.30;;;;;;4964801;28;20208;-88
2022/02/14 05:12:58;;;;;;;5.87;1.80;;;11.90;25.70;;;;;;4964579;28;20173;-89
2022/02/14 05:15:25;;;;;;;7.27;1.93;;;12.00;27.10;;;;;;4963060;28;20207;-89
2022/02/14 05:17:50;;;;;;;5.10;1.80;;;12.00;27.30;;;;;;4962765;28;20181;-89
2022/02/14 05:20:18;;;;;;;3.07;1.90;;;11.90;28.40;;;;;;4960690;28;20264;-89
2022/02/14 05:22:43;;;;;;;5.80;2.07;;;12.00;29.20;;;;;;4972172;28;20240;-89
2022/02/14 05:25:09;;;;;;;7.67;1.90;;;11.90;29.20;;;;;;4978351;28;20179;-90
2022/02/14 05:27:36;;;;;;;4.00;2.20;;;11.90;30.00;;;;;;4980676;28;20164;-90
2022/02/14 05:30:03;;;;;;;4.93;1.97;;;12.00;29.80;;;;;;4981108;28;20268;-87
2022/02/14 05:32:32;;;;;;;4.80;2.00;;;11.90;31.40;;;;;;4975514;28;20189;-88
2022/02/14 05:34:59;;;;;;;6.30;2.20;;;11.90;32.00;;;;;;4968065;28;20180;-88
2022/02/14 05:37:27;;;;;;;4.47;2.00;;;11.90;33.60;;;;;;4964074;28;20184;-89
2022/02/14 05:39:54;;;;;;;5.07;1.83;;;11.90;35.90;;;;;;4973956;28;20177;-89
2022/02/14 05:42:20;;;;;;;7.00;1.90;;;11.90;36.90;;;;;;4971602;28;20275;-88
2022/02/14 05:44:46;;;;;;;2.97;1.90;;;12.00;38.40;;;;;;4969403;28;20287;-90
2022/02/14 05:47:16;;;;;;;5.10;1.70;;;11.90;40.30;;;;;;4964555;28;20235;-90
2022/02/14 05:49:43;;;;;;;5.77;2.30;;;11.90;41.80;;;;;;4963241;28;20184;-90
2022/02/14 05:52:09;;;;;;;5.23;1.80;;;11.90;45.00;;;;;;4968590;28;20190;-90
2022/02/14 05:54:36;;;;;;;5.30;2.30;;;11.90;48.50;;;;;;4978379;28;20194;-90
2022/02/14 05:58:18;;;;;;;5.00;1.93;;;11.90;50.30;;;;;;4975827;28;20183;-90
2022/02/14 06:00:19;;;;;;;4.03;2.20;;;11.90;51.30;;;;;;4975964;28;20248;-90
2022/02/14 06:02:46;;;;;;;3.27;1.93;;;11.80;54.50;;;;;;4970718;28;20216;-88
2022/02/14 06:05:13;;;;;;;4.63;1.87;;;11.80;57.90;;;;;;4965265;28;20172;-88
2022/02/14 06:07:38;;;;;;;4.67;2.00;;;11.80;57.40;;;;;;4963017;28;20176;-90
2022/02/14 06:10:04;;;;;;;3.33;1.90;;;11.80;56.80;;;;;;4962581;28;20176;-89
2022/02/14 06:12:30;;;;;;;4.20;2.23;;;11.80;59.70;;;;;;4965352;28;20187;-90
2022/02/14 06:14:59;;;;;;;3.87;1.90;;;11.80;68.50;;;;;;4964081;29;20179;-89
2022/02/14 06:17:24;;;;;;;5.97;2.10;;;11.70;74.50;;;;;;4963002;29;20176;-89
2022/02/14 06:20:42;;;;;;;;;;;;;;;;;;;;;
2022/02/14 06:23:08;;;;;;;5.07;2.00;;;11.60;76.90;;;;;;4962442;28;20291;-88
2022/02/14 06:25:34;;;;;;;4.97;1.90;;;11.50;78.80;;;;;;4961330;28;20215;-88
2022/02/14 06:28:00;;;;;;;4.43;1.90;;;11.50;79.00;;;;;;4962493;28;20212;-91
2022/02/14 06:30:27;;;;;;;5.53;2.53;;;11.60;84.20;;;;;;4964939;28;20219;-89
2022/02/14 06:32:54;;;;;;;6.20;2.80;;;11.40;90.60;;;;;;4970044;28;20176;-91
2022/02/14 06:35:21;;;;;;;5.10;2.80;;;11.30;93.10;;;;;;4967633;28;20180;-89
2022/02/14 06:37:47;;;;;;;4.67;2.73;;;11.10;95.30;;;;;;4971416;28;20177;-90
2022/02/14 06:40:14;;;;;;;6.60;3.07;;;10.90;96.80;;;;;;4971288;28;20187;-91
2022/02/14 06:42:40;;;;;;;4.83;2.50;;;10.80;98.20;;;;;;4966129;28;20250;-91
2022/02/14 06:45:07;;;;;;;4.30;2.40;;;10.70;98.80;;;;;;4967990;28;20199;-89
2022/02/14 06:47:33;;;;;;;3.77;2.40;;;10.60;98.90;;;;;;4966295;29;20300;-91
2022/02/14 06:49:59;;;;;;;5.03;2.57;;;10.60;99.10;;;;;;4962392;28;20213;-91
2022/02/14 06:52:24;;;;;;;6.50;3.00;;;10.60;99.30;;;;;;4961557;29;20180;-92
2022/02/14 06:54:50;;;;;;;6.40;2.60;;;10.50;99.70;;;;;;4961709;28;20165;-92
2022/02/14 06:57:16;;;;;;;4.10;2.50;;;10.50;99.00;;;;;;4978130;28;20191;-91
2022/02/14 06:59:42;;;;;;;3.60;2.23;;;10.40;99.40;;;;;;4960605;29;20181;-91
2022/02/14 07:02:08;;;;;;;2.60;1.60;;;10.40;99.00;;;;;;4962848;29;20215;-91
2022/02/14 07:04:34;;;;;;;3.27;1.57;;;10.30;98.40;;;;;;4961376;28;20207;-90
2022/02/14 07:07:01;;;;;;;3.00;1.30;;;10.20;98.20;;;;;;4964959;28;20263;-88
2022/02/14 07:09:27;;;;;;;2.90;1.50;;;10.10;98.50;;;;;;4961985;28;20184;-89
2022/02/14 07:11:53;;;;;;;1.67;1.07;;;10.20;99.00;;;;;;4960660;29;20307;-90
2022/02/14 07:14:19;;;;;;;2.50;1.30;;;10.40;99.10;;;;;;4960114;28;20199;-91
2022/02/14 07:16:45;;;;;;;1.50;1.10;;;10.20;99.20;;;;;;4959407;28;20175;-89
2022/02/14 07:19:11;;;;;;;1.97;1.17;;;10.10;98.80;;;;;;4961124;28;20649;-89
2022/02/14 07:21:37;;;;;;;1.83;1.07;;;10.10;98.60;;;;;;4962405;29;20216;-91
2022/02/14 07:24:03;;;;;;;1.73;1.10;;;9.90;98.70;;;;;;4962681;28;20271;-90
2022/02/14 07:26:29;;;;;;;1.43;0.90;;;10.10;99.30;;;;;;4961454;28;20656;-88
2022/02/14 07:28:56;;;;;;;2.40;1.00;;;10.00;99.20;;;;;;4961717;28;20187;-91
2022/02/14 07:31:27;;;;;;;2.40;1.00;;;10.00;99.20;;;;;;4962339;28;20224;-92
2022/02/14 07:33:56;;;;;;;2.03;1.20;;;9.90;98.90;;;;;;4961412;28;20191;-92
2022/02/14 07:36:22;;;;;;;2.17;0.93;;;9.80;99.30;;;;;;4969911;28;20179;-94
2022/02/14 07:38:48;;;;;;;2.27;1.23;;;9.90;99.50;;;;;;4996932;23;20591;-92
2022/02/14 07:41:23;;;;;;;1.80;1.20;;;9.90;99.00;;;;;;5044489;28;20169;-92
2022/02/14 07:43:55;;;;;;;1.43;0.97;;;9.90;97.90;;;;;;5062932;28;20173;-92
2022/02/14 07:46:21;;;;;;;2.20;1.30;;;9.90;96.90;;;;;;5043050;28;20207;-90
2022/02/14 07:48:49;;;;;;;2.97;1.10;;;9.90;96.00;;;;;;5042856;28;20191;-91
2022/02/14 07:51:17;;;;;;;2.17;1.60;;;9.90;95.20;;;;;;5041719;28;20171;-91
2022/02/14 07:53:44;;;;;;;1.47;0.90;;;9.90;93.70;;;;;;5042886;28;20259;-89
2022/02/14 07:56:12;;;;;;;1.57;1.00;;;9.90;92.60;;;;;;5043236;28;20177;-90
2022/02/14 07:58:39;;;;;;;1.80;0.90;;;9.80;92.00;;;;;;5043088;28;20628;-90
2022/02/14 08:01:05;;;;;;;2.50;1.30;;;9.70;90.90;;;;;;5043874;28;20169;-92
2022/02/14 08:03:31;;;;;;;4.13;1.10;;;9.70;90.80;;;;;;5046191;28;20207;-91
2022/02/14 08:05:58;;;;;;;2.40;0.93;;;9.70;90.70;;;;;;5066333;28;20507;-91
2022/02/14 08:08:23;;;;;;;2.13;0.80;;;9.80;86.70;;;;;;5064113;28;20302;-90
2022/02/14 08:10:51;;;;;;;1.83;1.03;;;9.90;80.90;;;;;;5064362;28;20164;-91
2022/02/14 08:13:22;;;;;;;1.07;0.90;;;9.90;77.40;;;;;;5034968;28;20184;-89
2022/02/14 08:15:50;;;;;;;2.17;0.90;;;9.90;75.50;;;;;;5028619;28;20583;-91
2022/02/14 08:18:16;;;;;;;2.73;1.00;;;10.00;76.20;;;;;;5043007;28;20168;-89
2022/02/14 08:20:42;;;;;;;2.97;0.93;;;9.80;76.90;;;;;;5034689;28;20734;-91
2022/02/14 08:23:08;;;;;;;3.13;1.00;;;9.90;78.50;;;;;;5027054;28;20224;-90
2022/02/14 08:25:34;;;;;;;2.10;0.77;;;9.90;79.70;;;;;;5020968;28;20186;-91
2022/02/14 08:28:01;;;;;;;2.00;1.00;;;9.90;79.10;;;;;;5003587;28;20537;-91
2022/02/14 08:30:28;;;;;;;2.60;1.30;;;10.10;79.50;;;;;;5016997;28;20193;-93
2022/02/14 08:32:56;;;;;;;3.07;1.20;;;9.90;76.70;;;;;;5026785;28;20717;-90
2022/02/14 08:35:22;;;;;;;3.17;1.20;;;9.90;75.80;;;;;;5022001;28;20196;-91
2022/02/14 08:37:50;;;;;;;2.43;0.83;;;9.90;74.20;;;;;;5025111;28;20178;-90
2022/02/14 08:40:20;;;;;;;3.20;1.00;;;9.90;73.50;;;;;;5029103;28;20204;-90
2022/02/14 08:42:46;;;;;;;1.63;0.87;;;9.90;72.70;;;;;;5027020;28;20233;-91
2022/02/14 08:45:12;;;;;;;2.10;1.00;;;10.00;69.20;;;;;;5022211;28;20169;-88
2022/02/14 08:47:40;;;;;;;3.77;1.43;;;10.10;66.40;;;;;;5026773;28;20238;-89
2022/02/14 08:50:11;;;;;;;2.90;0.90;;;10.00;66.90;;;;;;5012493;28;20178;-89
2022/02/14 08:52:40;;;;;;;2.20;1.20;;;10.10;64.40;;;;;;5027675;28;20185;-90
2022/02/14 08:55:08;;;;;;;3.30;0.93;;;10.20;63.20;;;;;;5023672;28;20166;-90
2022/02/14 08:57:38;;;;;;;2.70;1.00;;;10.10;58.80;;;;;;5008764;28;20174;-91
2022/02/14 09:00:05;;;;;;;2.23;1.00;;;10.10;59.50;;;;;;5006412;28;20177;-90
2022/02/14 09:02:31;;;;;;;3.70;1.27;;;10.10;60.40;;;;;;5007398;28;20210;-91
2022/02/14 09:04:59;;;;;;;4.80;1.13;;;10.20;56.30;;;;;;5024761;28;20608;-89
2022/02/14 09:07:26;;;;;;;2.73;1.20;;;10.30;53.70;;;;;;5027099;28;20178;-90
2022/02/14 09:09:52;;;;;;;2.80;1.10;;;10.30;54.70;;;;;;5024338;28;20178;-91
2022/02/14 09:12:19;;;;;;;3.97;1.10;;;10.30;56.40;;;;;;5030255;28;20178;-91
2022/02/14 09:14:45;;;;;;;3.43;1.10;;;10.20;55.00;;;;;;5035841;28;20181;-89
2022/02/14 09:17:14;;;;;;;5.30;1.50;;;10.20;57.40;;;;;;5036016;28;20181;-89
2022/02/14 09:19:41;;;;;;;5.00;1.67;;;10.10;58.20;;;;;;5033924;28;20185;-91
2022/02/14 09:22:14;;;;;;;4.17;1.50;;;10.30;57.50;;;;;;5039682;28;20213;-89
2022/02/14 09:24:41;;;;;;;4.67;1.37;;;10.20;58.40;;;;;;5032672;28;20216;-90
2022/02/14 09:27:15;;;;;;;4.17;1.47;;;10.20;56.40;;;;;;5033959;28;20175;-93
2022/02/14 09:30:35;;;;;;;4.93;1.60;;;10.30;58.00;;;;;;5032407;28;20170;-91
2022/02/14 09:33:01;;;;;;;5.90;1.93;;;10.30;57.20;;;;;;5024327;28;20182;-91
2022/02/14 09:35:30;;;;;;;3.80;1.73;;;10.30;51.90;;;;;;5025191;28;20174;-93
2022/02/14 09:38:02;;;;;;;6.23;1.83;;;10.30;54.70;;;;;;5026125;28;20216;-89
2022/02/14 09:40:30;;;;;;;5.87;1.50;;;10.30;52.10;;;;;;5021962;28;20190;-94
2022/02/14 09:42:59;;;;;;;4.23;1.60;;;10.30;54.00;;;;;;5009693;28;20569;-93
2022/02/14 09:45:26;;;;;;;6.00;1.60;;;10.30;56.30;;;;;;5025946;28;20154;-91
2022/02/14 09:48:02;;;;;;;3.70;1.50;;;10.40;55.50;;;;;;5021794;28;20220;-89
2022/02/14 09:50:30;;;;;;;5.00;2.00;;;10.50;51.50;;;;;;5009751;28;20178;-90
2022/02/14 09:52:57;;;;;;;4.87;1.50;;;10.50;51.10;;;;;;5006424;28;20178;-90
2022/02/14 09:55:25;;;;;;;5.33;1.90;;;10.70;43.20;;;;;;5013656;28;20185;-91
2022/02/14 09:57:51;;;;;;;9.03;1.77;;;10.80;42.50;;;;;;5011092;28;20177;-88
2022/02/14 10:00:18;;;;;;;6.70;1.50;;;10.60;34.10;;;;;;5026844;28;20223;-91
2022/02/14 10:02:44;;;;;;;4.00;1.50;;;10.60;37.10;;;;;;5026554;28;20328;-90
2022/02/14 10:05:18;;;;;;;7.37;1.43;;;10.60;35.10;;;;;;5029220;28;20193;-90
2022/02/14 10:07:49;;;;;;;5.37;1.53;;;10.70;31.70;;;;;;5027696;28;20181;-92
2022/02/14 10:10:29;;;;;;;2.90;1.57;;;10.90;33.10;;;;;;5027523;28;20185;-90
2022/02/14 10:13:07;;;;;;;5.23;1.80;;;10.80;29.90;;;;;;5011593;28;20178;-91
2022/02/14 10:15:34;;;;;;;4.37;1.83;;;10.80;32.00;;;;;;5011088;28;20178;-91
2022/02/14 10:18:03;;;;;;;5.07;1.50;;;10.90;25.60;;;;;;4994349;28;20197;-89
2022/02/14 10:20:31;;;;;;;5.13;1.70;;;10.90;19.80;;;;;;5014275;28;20194;-91
2022/02/14 10:38:36;;;;;;;6.37;1.70;;;10.60;16.30;;;;;;5053911;28;20215;-94
2022/02/14 10:41:19;;;;;;;8.30;1.60;;;10.60;17.60;;;;;;5023937;28;20172;-93
2022/02/14 10:43:45;;;;;;;3.80;1.27;;;10.60;20.70;;;;;;5025196;28;20197;-95
2022/02/14 10:46:21;;;;;;;6.63;1.47;;;10.90;15.30;;;;;;5042661;28;20177;-94
2022/02/14 10:48:58;;;;;;;5.90;1.90;;;10.80;14.40;;;;;;5042399;28;20173;-94
2022/02/14 10:51:31;;;;;;;3.33;1.30;;;10.90;13.40;;;;;;5043619;28;20153;-93
2022/02/14 10:53:57;;;;;;;5.23;1.67;;;11.10;12.80;;;;;;5037930;28;20175;-92
2022/02/14 10:56:42;;;;;;;5.93;1.43;;;11.20;7.00;;;;;;5041626;28;20269;-92
2022/02/14 10:59:16;;;;;;;4.80;1.70;;;11.30;3.40;;;;;;5033490;28;20227;-91
2022/02/14 11:01:46;;;;;;;5.10;1.47;;;11.60;2.80;;;;;;5055415;28;20208;-91
2022/02/14 11:04:24;;;;;;;3.20;1.40;;;11.50;2.90;;;;;;5033357;28;20193;-94
2022/02/14 11:06:52;;;;;;;4.20;1.60;;;11.50;1.00;;;;;;5046336;28;20209;-92
2022/02/14 11:09:54;;;;;;;4.87;2.00;;;11.40;2.80;;;;;;5031259;28;20184;-93
2022/02/14 11:12:23;;;;;;;7.63;2.00;;;11.40;9.60;;;;;;5014990;28;20186;-93
2022/02/14 11:14:54;;;;;;;4.07;1.70;;;11.40;1.00;;;;;;5031363;28;20174;-93
2022/02/14 11:17:25;;;;;;;8.10;2.37;;;11.30;1.00;;;;;;5033360;28;20173;-92
2022/02/14 11:19:57;;;;;;;4.73;2.07;;;11.30;1.00;;;;;;5011790;28;20240;-90
2022/02/14 11:22:37;;;;;;;7.33;2.37;;;11.40;1.00;;;;;;5028415;28;20205;-93
2022/02/14 11:25:13;;;;;;;6.67;1.90;;;11.50;1.00;;;;;;5034783;28;20200;-95
2022/02/14 11:28:06;;;;;;;4.63;1.70;;;11.50;1.00;;;;;;5033211;28;20204;-95
2022/02/14 11:30:49;;;;;;;7.17;1.80;;;11.50;1.00;;;;;;5047055;28;20186;-94
2022/02/14 11:33:23;;;;;;;6.63;1.80;;;11.50;1.00;;;;;;5036807;28;20189;-94
2022/02/14 11:36:07;;;;;;;7.63;2.33;;;11.40;1.00;;;;;;5035069;28;20199;-95
2022/02/14 11:38:51;;;;;;;6.63;1.80;;;11.50;1.00;;;;;;5046648;28;20260;-92
2022/02/14 11:41:46;;;;;;;7.80;1.93;;;11.40;1.00;;;;;;5037591;28;20154;-96
2022/02/14 11:44:25;;;;;;;7.70;2.43;;;11.50;1.00;;;;;;5040023;28;20178;-88
2022/02/14 11:46:55;;;;;;;9.33;2.13;;;11.60;1.00;;;;;;5040243;28;20188;-91
2022/02/14 11:49:32;;;;;;;6.27;2.07;;;11.70;1.00;;;;;;5039467;28;20178;-93
2022/02/14 11:52:05;;;;;;;8.03;2.20;;;11.50;1.00;;;;;;5039106;28;20176;-94
2022/02/14 11:54:49;;;;;;;8.93;2.57;;;11.60;1.00;;;;;;5051966;28;20184;-90
2022/02/14 11:57:46;;;;;;;8.77;2.33;;;11.50;1.00;;;;;;5035024;28;20239;-91
2022/02/14 12:00:15;;;;;;;10.83;3.13;;;11.60;1.00;;;;;;5020178;28;20169;-92
2022/02/14 12:03:17;;;;;;;7.20;2.17;;;11.70;1.00;;;;;;5034743;28;20236;-92
2022/02/14 12:06:01;;;;;;;6.97;1.73;;;11.60;1.00;;;;;;5035185;28;20173;-93
2022/02/14 12:09:20;;;;;;;9.43;3.13;;;11.50;1.00;;;;;;5055709;28;20162;-91
2022/02/14 12:11:57;;;;;;;5.90;2.20;;;11.50;1.00;;;;;;5034578;28;20189;-93
2022/02/14 12:14:26;;;;;;;7.33;1.97;;;11.50;1.00;;;;;;4993723;28;20173;-92
2022/02/14 12:22:46;;;;;;;10.03;2.00;;;11.20;1.00;;;;;;5046813;28;20281;-93
2022/02/14 12:25:14;;;;;;;5.97;1.97;;;11.20;1.00;;;;;;5027349;28;20177;-92
2022/02/14 12:27:44;;;;;;;5.50;2.13;;;11.20;1.00;;;;;;5044556;28;20272;-91
2022/02/14 12:30:29;;;;;;;7.17;2.50;;;11.20;1.00;;;;;;5029824;28;20265;-93
2022/02/14 12:33:08;;;;;;;8.33;2.03;;;11.10;1.00;;;;;;5034109;28;20170;-93
2022/02/14 12:36:00;;;;;;;8.50;2.00;;;11.20;1.00;;;;;;5035949;28;20181;-94
2022/02/14 12:38:29;;;;;;;8.80;1.80;;;11.10;1.00;;;;;;5049995;28;20472;-93
2022/02/14 12:41:02;;;;;;;5.23;1.87;;;11.10;1.00;;;;;;5029311;28;20176;-92
2022/02/14 12:43:35;;;;;;;6.43;1.97;;;11.10;1.00;;;;;;5024397;28;20239;-91
2022/02/14 12:46:09;;;;;;;6.27;2.00;;;11.10;1.00;;;;;;5026039;28;20177;-94
2022/02/14 12:49:07;;;;;;;7.67;2.07;;;11.00;2.40;;;;;;5043298;28;20182;-90
2022/02/14 12:51:34;;;;;;;8.10;2.50;;;11.20;4.10;;;;;;5043934;28;20273;-92
2022/02/14 12:54:05;;;;;;;6.93;2.30;;;11.30;1.00;;;;;;5026608;28;20185;-92
2022/02/14 12:56:33;;;;;;;9.17;2.20;;;11.30;1.00;;;;;;5023574;28;20177;-89
2022/02/14 12:59:11;;;;;;;8.87;2.57;;;11.50;1.00;;;;;;5028072;28;20181;-92
2022/02/14 13:01:43;;;;;;;8.97;2.80;;;11.50;1.00;;;;;;5042181;28;20201;-92
2022/02/14 13:04:16;;;;;;;10.43;2.97;;;11.80;1.00;;;;;;5032964;28;20184;-91
2022/02/14 13:06:52;;;;;;;9.80;2.80;;;11.60;1.00;;;;;;5030539;28;20232;-91
2022/02/14 13:09:33;;;;;;;8.53;2.90;;;11.60;1.00;;;;;;5027946;28;20272;-91
2022/02/14 13:12:11;;;;;;;11.07;2.60;;;11.70;1.00;;;;;;5028791;28;20173;-91
2022/02/14 13:14:47;;;;;;;12.57;2.03;;;11.70;1.00;;;;;;5030273;28;20209;-90
2022/02/14 13:17:18;;;;;;;7.80;1.87;;;11.60;1.00;;;;;;5025105;28;20201;-93
2022/02/14 13:19:53;;;;;;;5.80;2.00;;;11.50;1.00;;;;;;5023029;28;20221;-91
2022/02/14 13:22:38;;;;;;;8.83;2.00;;;11.60;1.00;;;;;;5025854;28;20225;-90
2022/02/14 13:25:19;;;;;;;6.50;1.67;;;11.70;1.00;;;;;;5027002;28;20230;-92
2022/02/14 13:27:48;;;;;;;10.53;2.33;;;11.60;1.00;;;;;;5015189;28;20188;-89
2022/02/14 13:30:21;;;;;;;13.27;2.47;;;11.70;1.00;;;;;;5030235;28;20192;-90
2022/02/14 13:32:50;;;;;;;8.43;2.47;;;11.70;1.00;;;;;;5029241;28;20180;-90